Ashburn Village, VA

05:45 PM EST die 17o February, anno 2019 (GMT -0500)
Ashburn Village 1 | | Change Station

Elev 279 ft 39.05 °N, 77.48 °W | Updated 27 seconds ago

Aequaliter Nubila
Aequaliter Nubila
36.2 °F
Feels Like 36 °F
N
0
Ventus Variabilis Ventus from Aquilo
Gusts 4.0 mph

Hodie
High -- | Low -- °F
--% Chance of Precip.
Yesterday
High -- | Low -- °F
Precip. -- in
Pressio 29.98 in
Visibilitas 10.0 milia passuum
Clouds Aequaliter Nubila 3600 ft
Frigus Venti 36 °F
Frigus in quo Ros apparet 28 °F
Umor 73%
Rainfall 0.01 in
Snow Depth Not available.
6:59 AM 5:49 PM
Waxing Gibbous, 96% visible
METAR KJYO 172235Z AUTO 15005KT 10SM OVC036 03/00 A2998 RMK AO2 PWINO
Pressio 29.98 in
Visibilitas 10.0 milia passuum
Clouds Aequaliter Nubila 3600 ft
Frigus Venti 36 °F
Frigus in quo Ros apparet 28 °F
Umor 73%
Rainfall 0.01 in
Snow Depth Not available.
6:59 AM 5:49 PM
Waxing Gibbous, 96% visible
METAR KJYO 172235Z AUTO 15005KT 10SM OVC036 03/00 A2998 RMK AO2 PWINO

Get Severe Weather Alerts

Thanks for signing up!

Be on the lookout for a verification email in your inbox.

You'll start receiving the daily forecast at 6 AM.

×

10-Day Weather Forecast

Almanac

Astronomy

Feb. 17, 2019 Rise Set
Actual Time
Civil Twilight
Nautical Twilight
Astronomical Twilight
Moon
Length Of Visible Light
Length of Day
Tomorrow will be .
, % of the Moon is Illuminated

Today's Extremes

State Highs State Lows

Community

WunderPhotos

Category 6

Welcome to Category 6. This is the collective home for Weather Underground's featured writeups by Dr. Jeff Masters (right), Bob Henson (left), Chris Burt, and other regular contributors.

Nearby

Air Quality

  Air Quality AQ Index Pollutant
Not available.

Snow Depth

Station Depth Elevation

Earthquake Activity

City Distance Mag. Time & Date
Minimum magnitude displayed is 2.5.

Coastal Water Temperatures

Locus Calor

Stations

Nearby Weather Stations

Station Location Temp Frigus Venti Frigus in quo Ros apparet Umor Ventus Precip. Elev Renovata Type
                   

Watches & Warnings

There are currently no watches in effect.